Time;durP1;ratioP1;P1;durP2;ratioP2;P2;SDS_P1;SDS_P2;PMS_P1;PMS_P2;Temp;Humidity;BMP_temperature;BMP_pressure;BME280_temperature;BME280_humidity;BME280_pressure;Samples;Min_cycle;Max_cycle;Signal;HPM_P1;HPM_P2
2023/09/11 00:00:44;;;;;;;15.85;11.27;;;20.10;99.90;;;;;;5150951;27;20107;-76
2023/09/11 00:03:09;;;;;;;13.75;11.45;;;20.10;99.90;;;;;;5127340;27;20053;-76
2023/09/11 00:05:35;;;;;;;15.48;10.93;;;20.10;99.90;;;;;;5139978;27;20046;-76
2023/09/11 00:08:01;;;;;;;14.32;11.45;;;20.10;99.90;;;;;;5136714;27;20051;-77
2023/09/11 00:10:26;;;;;;;12.98;10.98;;;20.10;99.90;;;;;;5119125;27;20039;-77
2023/09/11 00:12:52;;;;;;;16.95;11.55;;;20.10;99.90;;;;;;5127031;27;20043;-78
2023/09/11 00:15:18;;;;;;;14.90;11.52;;;20.10;99.90;;;;;;5137545;27;20055;-77
2023/09/11 00:17:44;;;;;;;14.25;11.52;;;20.10;99.90;;;;;;5118791;27;20039;-77
2023/09/11 00:20:10;;;;;;;17.23;11.25;;;20.00;99.90;;;;;;5137164;27;20131;-77
2023/09/11 00:22:39;;;;;;;17.00;10.77;;;20.00;99.90;;;;;;5136873;27;20050;-77
2023/09/11 00:25:06;;;;;;;12.13;10.65;;;20.00;99.90;;;;;;5136912;27;20043;-77
2023/09/11 00:27:32;;;;;;;14.68;10.70;;;20.00;99.90;;;;;;5154548;27;20099;-77
2023/09/11 00:29:58;;;;;;;19.52;11.20;;;20.00;99.90;;;;;;5157944;27;20042;-77
2023/09/11 00:32:23;;;;;;;15.55;11.10;;;20.00;99.90;;;;;;5157904;27;20038;-78
2023/09/11 00:34:49;;;;;;;15.30;11.18;;;20.00;99.90;;;;;;5157899;27;20039;-77
2023/09/11 00:37:15;;;;;;;13.30;10.35;;;20.00;99.90;;;;;;5157200;27;20042;-77
2023/09/11 00:39:40;;;;;;;14.80;10.27;;;19.90;99.90;;;;;;5137141;27;20468;-77
2023/09/11 00:42:06;;;;;;;17.92;11.10;;;19.90;99.90;;;;;;5117990;27;20051;-78
2023/09/11 00:44:32;;;;;;;16.92;11.27;;;19.90;99.90;;;;;;5117770;27;20047;-76
2023/09/11 00:46:58;;;;;;;12.48;9.88;;;19.90;99.90;;;;;;5136486;27;20046;-77
2023/09/11 00:49:24;;;;;;;16.20;11.00;;;19.90;99.90;;;;;;5126051;27;20066;-77
2023/09/11 00:51:50;;;;;;;13.57;10.63;;;19.80;99.90;;;;;;5141587;27;20043;-76
2023/09/11 00:54:19;;;;;;;13.02;10.27;;;19.80;99.90;;;;;;5118638;27;20811;-77
2023/09/11 00:56:47;;;;;;;14.38;10.65;;;19.80;99.90;;;;;;5118010;27;20047;-78
2023/09/11 00:59:14;;;;;;;14.27;11.07;;;19.80;99.90;;;;;;5147205;27;20051;-77
2023/09/11 01:01:44;;;;;;;13.90;10.73;;;19.80;99.90;;;;;;5123237;27;20114;-78
2023/09/11 01:04:10;;;;;;;17.75;10.82;;;19.70;99.90;;;;;;5136859;27;20043;-77
2023/09/11 01:06:36;;;;;;;14.88;10.38;;;19.70;99.90;;;;;;5137250;27;20071;-77
2023/09/11 01:09:03;;;;;;;16.10;10.90;;;19.70;99.90;;;;;;5154186;27;20107;-76
2023/09/11 01:11:29;;;;;;;15.45;10.82;;;19.60;99.90;;;;;;5136617;27;20122;-77
2023/09/11 01:13:57;;;;;;;14.05;10.40;;;19.60;99.90;;;;;;5117729;27;20452;-77
2023/09/11 01:16:53;;;;;;;13.55;10.27;;;19.60;99.90;;;;;;5118305;27;20043;-78
2023/09/11 01:19:41;;;;;;;13.47;10.87;;;19.50;99.90;;;;;;5155770;27;20390;-76
2023/09/11 01:22:13;;;;;;;12.93;9.25;;;19.50;99.90;;;;;;5135936;27;20121;-77
2023/09/11 01:24:57;;;;;;;17.08;10.70;;;19.40;99.90;;;;;;5139798;27;20391;-77
2023/09/11 01:27:45;;;;;;;14.50;10.80;;;19.40;99.90;;;;;;5149296;27;20119;-77
2023/09/11 01:30:12;;;;;;;14.30;10.15;;;19.30;99.90;;;;;;5156905;27;20134;-78
2023/09/11 01:32:38;;;;;;;17.33;10.73;;;19.30;99.90;;;;;;5156566;27;20499;-76
2023/09/11 01:35:04;;;;;;;13.60;10.57;;;19.30;99.90;;;;;;5155148;27;20043;-76
2023/09/11 01:37:31;;;;;;;19.05;10.98;;;19.30;99.90;;;;;;5120172;27;20051;-76
2023/09/11 01:39:57;;;;;;;18.08;10.95;;;19.30;99.90;;;;;;5143981;27;20051;-76
2023/09/11 01:42:30;;;;;;;15.82;11.05;;;19.30;99.90;;;;;;5154374;27;20506;-76
2023/09/11 01:44:58;;;;;;;12.48;10.07;;;19.30;99.90;;;;;;5151499;27;20042;-77
2023/09/11 01:47:25;;;;;;;14.57;10.85;;;19.20;99.90;;;;;;5156180;27;20502;-76
2023/09/11 01:49:53;;;;;;;13.50;10.75;;;19.20;99.90;;;;;;5135858;27;20051;-77
2023/09/11 01:52:20;;;;;;;15.10;11.25;;;19.20;99.90;;;;;;5100615;27;20043;-76
2023/09/11 01:54:47;;;;;;;14.23;10.85;;;19.20;99.90;;;;;;5135639;27;20045;-77
2023/09/11 01:57:13;;;;;;;13.45;11.32;;;19.20;99.90;;;;;;5135551;27;20047;-77
2023/09/11 01:59:39;;;;;;;14.77;11.00;;;19.20;99.90;;;;;;5120773;27;20039;-76
2023/09/11 02:02:06;;;;;;;15.95;11.00;;;19.10;99.90;;;;;;5142310;27;20043;-77
2023/09/11 02:04:31;;;;;;;18.90;11.50;;;19.20;99.90;;;;;;5135595;27;20399;-76
2023/09/11 02:06:57;;;;;;;14.55;11.02;;;19.20;99.90;;;;;;5135137;27;20055;-77
2023/09/11 02:09:23;;;;;;;13.27;10.95;;;19.10;99.90;;;;;;5123270;27;20050;-76
2023/09/11 02:11:49;;;;;;;15.77;10.95;;;19.10;99.90;;;;;;5143766;27;20046;-77
2023/09/11 02:14:14;;;;;;;15.90;10.77;;;19.10;99.90;;;;;;5099634;27;20039;-77
2023/09/11 02:16:40;;;;;;;16.67;11.50;;;19.10;99.90;;;;;;5135062;27;20097;-77
2023/09/11 02:19:06;;;;;;;17.15;11.40;;;19.10;99.90;;;;;;5135321;27;20039;-77
2023/09/11 02:21:31;;;;;;;16.92;11.75;;;19.10;99.90;;;;;;5135183;27;20050;-76
2023/09/11 02:23:57;;;;;;;13.98;10.10;;;19.10;99.90;;;;;;5134598;27;20498;-76
2023/09/11 02:26:24;;;;;;;16.15;10.85;;;19.00;99.90;;;;;;5134664;27;20101;-77
2023/09/11 02:28:49;;;;;;;16.65;10.88;;;19.10;99.90;;;;;;5116517;27;20427;-77
2023/09/11 02:31:15;;;;;;;16.40;11.43;;;19.00;99.90;;;;;;5134810;27;20035;-77
2023/09/11 02:33:41;;;;;;;16.85;11.38;;;19.00;99.90;;;;;;5134820;27;20494;-77
2023/09/11 02:36:06;;;;;;;17.10;11.43;;;19.00;99.90;;;;;;5138562;27;20075;-77
2023/09/11 02:38:32;;;;;;;15.55;10.68;;;18.90;99.90;;;;;;5146145;27;20502;-77
2023/09/11 02:40:58;;;;;;;14.52;10.88;;;18.90;99.90;;;;;;5136471;27;20388;-77
2023/09/11 02:43:23;;;;;;;15.55;10.80;;;18.90;99.90;;;;;;5143685;27;20107;-77
2023/09/11 02:45:49;;;;;;;11.98;9.77;;;18.90;99.90;;;;;;5133731;27;20035;-76
2023/09/11 02:48:15;;;;;;;13.63;9.98;;;18.90;99.90;;;;;;5133782;27;20045;-77
2023/09/11 02:50:40;;;;;;;15.48;10.20;;;19.00;99.90;;;;;;5134466;27;20399;-77
2023/09/11 02:53:09;;;;;;;12.68;9.70;;;19.10;99.90;;;;;;5134888;27;20399;-77
2023/09/11 02:55:41;;;;;;;17.73;10.00;;;19.10;99.90;;;;;;5116413;27;20058;-77
2023/09/11 02:58:07;;;;;;;11.48;9.40;;;19.10;99.90;;;;;;5142751;27;20043;-77
2023/09/11 03:00:36;;;;;;;13.98;9.90;;;19.20;99.90;;;;;;5133726;27;20464;-77
2023/09/11 03:03:03;;;;;;;15.50;9.85;;;19.20;99.90;;;;;;5116042;27;20039;-78
2023/09/11 03:05:32;;;;;;;15.25;9.77;;;19.30;99.90;;;;;;5135843;27;20115;-78
2023/09/11 03:08:02;;;;;;;16.88;10.20;;;19.30;99.90;;;;;;5136571;27;20061;-78
2023/09/11 03:10:29;;;;;;;18.00;10.40;;;19.30;99.90;;;;;;5134222;27;20051;-77
2023/09/11 03:12:55;;;;;;;17.05;10.57;;;19.30;99.90;;;;;;5133518;27;20035;-77
2023/09/11 03:15:28;;;;;;;15.55;11.07;;;19.40;99.90;;;;;;5115685;28;20046;-77
2023/09/11 03:17:54;;;;;;;15.05;10.32;;;19.40;99.90;;;;;;5135312;27;20049;-77
2023/09/11 03:20:20;;;;;;;14.77;10.00;;;19.40;99.90;;;;;;5154619;27;20121;-77
2023/09/11 03:22:46;;;;;;;13.82;9.90;;;19.40;99.90;;;;;;5136197;27;20447;-77
2023/09/11 03:25:11;;;;;;;15.68;10.23;;;19.50;99.90;;;;;;5147841;27;20046;-77
2023/09/11 03:27:37;;;;;;;16.50;10.27;;;19.40;99.90;;;;;;5140552;27;20095;-76
2023/09/11 03:30:04;;;;;;;13.60;9.25;;;19.40;99.90;;;;;;5145478;27;20134;-76
2023/09/11 03:32:29;;;;;;;17.05;10.18;;;19.40;99.90;;;;;;5142800;27;20479;-76
2023/09/11 03:34:55;;;;;;;18.15;10.07;;;19.40;99.90;;;;;;5121179;28;20043;-77
2023/09/11 03:37:22;;;;;;;14.73;9.73;;;19.30;99.90;;;;;;5133878;27;20050;-76
2023/09/11 03:39:47;;;;;;;15.73;10.25;;;19.30;99.90;;;;;;5142816;27;20046;-76
2023/09/11 03:42:13;;;;;;;13.80;9.98;;;19.30;99.90;;;;;;5138070;27;20043;-77
2023/09/11 03:44:39;;;;;;;20.80;11.00;;;19.30;99.90;;;;;;5133515;27;20043;-76
2023/09/11 03:47:04;;;;;;;20.00;10.90;;;19.30;99.90;;;;;;5133573;27;20036;-77
2023/09/11 03:49:30;;;;;;;15.80;9.52;;;19.30;99.90;;;;;;5133806;27;20074;-76
2023/09/11 03:51:57;;;;;;;17.42;9.95;;;19.30;99.90;;;;;;5133910;27;20249;-76
2023/09/11 03:54:22;;;;;;;14.20;9.75;;;19.30;99.90;;;;;;5133352;27;20058;-76
2023/09/11 03:56:48;;;;;;;13.55;10.07;;;19.30;99.90;;;;;;5133729;27;20122;-77
2023/09/11 03:59:14;;;;;;;16.27;9.80;;;19.30;99.90;;;;;;5115767;28;20092;-77
2023/09/11 04:01:39;;;;;;;12.30;8.60;;;19.30;99.90;;;;;;5125676;27;20390;-77
2023/09/11 04:04:05;;;;;;;13.88;9.77;;;19.20;99.90;;;;;;5133483;27;20119;-77
2023/09/11 04:06:31;;;;;;;14.77;9.93;;;19.10;99.90;;;;;;5122040;28;20126;-77
2023/09/11 04:08:57;;;;;;;12.68;9.52;;;19.10;99.90;;;;;;5134038;27;20062;-76
2023/09/11 04:11:22;;;;;;;17.08;10.07;;;19.00;99.90;;;;;;5151646;27;20043;-77
2023/09/11 04:13:49;;;;;;;14.13;9.68;;;19.00;99.90;;;;;;5133389;27;20053;-76
2023/09/11 04:16:15;;;;;;;15.23;9.75;;;19.00;99.90;;;;;;5133543;27;20584;-76
2023/09/11 04:18:45;;;;;;;13.35;8.98;;;18.90;99.90;;;;;;5115250;28;20114;-79
2023/09/11 04:21:10;;;;;;;12.05;9.65;;;18.90;99.90;;;;;;5133597;27;20035;-76
2023/09/11 04:23:36;;;;;;;12.35;9.85;;;18.80;99.90;;;;;;5118764;27;20035;-76
2023/09/11 04:26:02;;;;;;;13.05;9.32;;;18.70;99.90;;;;;;5125504;28;20039;-76
2023/09/11 04:28:27;;;;;;;13.30;10.10;;;18.70;99.90;;;;;;5144479;27;20043;-76
2023/09/11 04:30:53;;;;;;;13.35;10.40;;;18.60;99.90;;;;;;5151617;27;20043;-76
2023/09/11 04:33:20;;;;;;;15.65;10.98;;;18.60;99.90;;;;;;5137027;27;20047;-76
2023/09/11 04:35:46;;;;;;;13.75;11.32;;;18.50;99.90;;;;;;5137234;27;20043;-76
2023/09/11 04:38:12;;;;;;;19.75;12.63;;;18.50;99.90;;;;;;5146952;27;20050;-77
2023/09/11 04:40:38;;;;;;;15.85;11.65;;;18.50;99.90;;;;;;5153080;27;20042;-78
2023/09/11 04:43:05;;;;;;;16.23;10.50;;;18.50;99.90;;;;;;5157466;27;20046;-78
2023/09/11 04:45:31;;;;;;;16.77;11.73;;;18.50;99.90;;;;;;5123741;27;20042;-78
2023/09/11 04:47:56;;;;;;;17.73;11.57;;;18.50;99.90;;;;;;5136617;27;20107;-77
2023/09/11 04:50:22;;;;;;;16.67;11.30;;;18.40;99.90;;;;;;5124783;27;20038;-78
2023/09/11 04:52:48;;;;;;;20.95;12.88;;;18.50;99.90;;;;;;5141420;27;20042;-78
2023/09/11 04:55:13;;;;;;;15.80;12.23;;;18.40;99.90;;;;;;5118539;27;20080;-78
2023/09/11 04:57:40;;;;;;;19.40;12.30;;;18.40;99.90;;;;;;5155499;27;20117;-77
2023/09/11 05:00:10;;;;;;;18.45;12.45;;;18.30;99.90;;;;;;5150991;27;20047;-77
2023/09/11 05:02:36;;;;;;;15.55;11.52;;;18.30;99.90;;;;;;5101542;27;20039;-77
2023/09/11 05:05:05;;;;;;;15.75;12.52;;;18.30;99.90;;;;;;5146021;27;20050;-77
2023/09/11 05:07:31;;;;;;;16.60;12.27;;;18.30;99.90;;;;;;5137212;27;20043;-77
2023/09/11 05:09:59;;;;;;;16.23;12.00;;;18.20;99.90;;;;;;5107420;27;20364;-77
2023/09/11 05:12:25;;;;;;;16.92;11.82;;;18.20;99.90;;;;;;5140291;27;20030;-77
2023/09/11 05:14:50;;;;;;;15.02;11.43;;;18.20;99.90;;;;;;5157209;27;20049;-78
2023/09/11 05:17:18;;;;;;;16.88;11.77;;;18.20;99.90;;;;;;5139354;27;20055;-78
2023/09/11 05:19:43;;;;;;;16.17;12.52;;;18.10;99.90;;;;;;5136604;27;20042;-78
2023/09/11 05:22:09;;;;;;;19.67;12.88;;;18.10;99.90;;;;;;5145100;27;20041;-77
2023/09/11 05:24:35;;;;;;;19.70;12.82;;;18.10;99.90;;;;;;5118369;27;20050;-77
2023/09/11 05:27:00;;;;;;;16.90;11.88;;;18.10;99.90;;;;;;5131480;27;20054;-77
2023/09/11 05:29:26;;;;;;;18.50;12.48;;;18.10;99.90;;;;;;5157073;27;20051;-78
2023/09/11 05:31:51;;;;;;;18.63;11.75;;;18.20;99.90;;;;;;5153427;27;20081;-77
2023/09/11 05:34:17;;;;;;;18.75;12.02;;;18.20;99.90;;;;;;5146266;27;20046;-77
2023/09/11 05:36:43;;;;;;;16.50;12.60;;;18.30;99.90;;;;;;5135606;27;20043;-77
2023/09/11 05:39:09;;;;;;;16.10;11.70;;;18.30;99.90;;;;;;5135000;27;20050;-77
2023/09/11 05:41:35;;;;;;;16.95;11.65;;;18.30;99.90;;;;;;5135769;27;20084;-77
2023/09/11 05:44:01;;;;;;;13.85;11.75;;;18.30;99.90;;;;;;5148529;27;20043;-77
2023/09/11 05:46:30;;;;;;;15.55;12.23;;;18.30;99.90;;;;;;5140717;27;20042;-77
2023/09/11 05:48:56;;;;;;;18.50;11.85;;;18.40;99.90;;;;;;5135226;27;20041;-77
2023/09/11 05:51:21;;;;;;;15.55;11.77;;;18.40;99.90;;;;;;5135845;27;20031;-78
2023/09/11 05:53:47;;;;;;;18.48;11.32;;;18.40;99.90;;;;;;5136016;27;20043;-77
2023/09/11 05:56:13;;;;;;;16.15;12.50;;;18.50;99.90;;;;;;5156349;27;20088;-76
2023/09/11 05:58:38;;;;;;;14.82;11.55;;;18.50;99.90;;;;;;5136022;27;20043;-77
2023/09/11 06:01:05;;;;;;;17.17;12.40;;;18.60;99.90;;;;;;5125314;27;20187;-77
2023/09/11 06:03:31;;;;;;;19.17;11.70;;;18.60;99.90;;;;;;5135249;27;20039;-77
2023/09/11 06:05:58;;;;;;;16.10;12.32;;;18.70;99.90;;;;;;5136533;27;20143;-76
2023/09/11 06:08:24;;;;;;;16.65;11.80;;;18.80;99.90;;;;;;5137620;27;20501;-76
2023/09/11 06:10:50;;;;;;;19.30;12.50;;;18.90;99.90;;;;;;5156266;27;20125;-78
2023/09/11 06:13:15;;;;;;;16.38;11.60;;;18.90;99.90;;;;;;5147659;27;20224;-77
2023/09/11 06:15:41;;;;;;;15.27;11.93;;;19.00;99.90;;;;;;5135153;27;20031;-65
2023/09/11 06:18:07;;;;;;;16.17;11.63;;;19.10;99.90;;;;;;5145533;27;20054;-65
2023/09/11 06:20:34;;;;;;;18.33;11.30;;;19.20;99.90;;;;;;5127401;27;20441;-65
2023/09/11 06:23:00;;;;;;;16.00;11.20;;;19.30;99.90;;;;;;5134660;27;20043;-65
2023/09/11 06:25:26;;;;;;;13.60;10.32;;;19.40;99.90;;;;;;5134454;27;20511;-65
2023/09/11 06:27:52;;;;;;;17.85;11.25;;;19.50;99.90;;;;;;5135038;27;20085;-65
2023/09/11 06:30:18;;;;;;;16.02;11.65;;;19.60;99.90;;;;;;5134967;27;20045;-65
2023/09/11 06:32:43;;;;;;;17.02;11.25;;;19.80;99.90;;;;;;5134819;27;20398;-65
2023/09/11 06:35:12;;;;;;;19.38;12.40;;;19.90;99.90;;;;;;5116182;27;20043;-65
2023/09/11 06:37:38;;;;;;;18.98;10.38;;;20.00;99.90;;;;;;5138280;27;20573;-65
2023/09/11 06:40:09;;;;;;;12.85;10.45;;;20.20;99.90;;;;;;5135070;27;20122;-65
2023/09/11 06:42:35;;;;;;;16.10;10.27;;;20.30;99.90;;;;;;5134503;27;20067;-66
2023/09/11 06:45:01;;;;;;;15.68;11.20;;;20.40;99.90;;;;;;5133992;27;20076;-65
2023/09/11 06:47:26;;;;;;;17.80;10.90;;;20.50;99.90;;;;;;5116276;27;20067;-65
2023/09/11 06:49:52;;;;;;;18.17;11.30;;;20.60;99.90;;;;;;5134476;27;20122;-65
2023/09/11 06:52:20;;;;;;;17.75;10.85;;;20.70;99.90;;;;;;5134652;27;20046;-65
2023/09/11 06:54:45;;;;;;;15.35;10.52;;;20.80;99.90;;;;;;5134217;27;20043;-65
2023/09/11 06:57:11;;;;;;;15.30;10.77;;;20.90;99.90;;;;;;5134407;27;20175;-65
2023/09/11 06:59:37;;;;;;;15.70;10.98;;;21.00;99.90;;;;;;5134192;27;20130;-66
2023/09/11 07:02:03;;;;;;;15.57;10.50;;;21.00;99.90;;;;;;5115730;27;20043;-66
2023/09/11 07:04:30;;;;;;;16.10;10.23;;;21.20;99.90;;;;;;5134194;27;20046;-66
2023/09/11 07:06:56;;;;;;;16.75;10.02;;;21.30;99.90;;;;;;5148130;27;20475;-66
2023/09/11 07:09:23;;;;;;;14.05;9.93;;;21.40;99.90;;;;;;5143763;27;20424;-66
2023/09/11 07:11:50;;;;;;;13.43;10.43;;;21.60;99.90;;;;;;5140952;27;20035;-66
2023/09/11 07:14:20;;;;;;;15.07;10.30;;;21.70;99.90;;;;;;5153872;27;20050;-65
2023/09/11 07:16:46;;;;;;;23.85;9.80;;;21.80;99.90;;;;;;5144345;27;20045;-65
2023/09/11 07:19:12;;;;;;;18.52;10.02;;;22.00;99.90;;;;;;5152991;27;20050;-65
2023/09/11 07:21:38;;;;;;;15.88;10.85;;;22.10;99.90;;;;;;5154678;27;20043;-65
2023/09/11 07:24:04;;;;;;;18.63;9.73;;;22.20;99.90;;;;;;5155005;27;20467;-66
2023/09/11 07:26:30;;;;;;;17.27;11.65;;;22.30;99.90;;;;;;5150597;27;20078;-66
2023/09/11 07:28:57;;;;;;;14.52;10.07;;;22.40;99.90;;;;;;5152084;27;20457;-65
2023/09/11 07:31:23;;;;;;;14.15;10.63;;;22.40;99.90;;;;;;5122946;28;20078;-66
2023/09/11 07:33:50;;;;;;;18.60;10.93;;;22.50;99.90;;;;;;5133929;27;20058;-65
2023/09/11 07:36:18;;;;;;;14.00;10.27;;;22.50;99.90;;;;;;5133541;28;20039;-65
2023/09/11 07:38:47;;;;;;;18.90;11.63;;;22.60;99.90;;;;;;5133434;28;20051;-65
2023/09/11 07:41:14;;;;;;;17.27;10.70;;;22.70;99.90;;;;;;5133484;28;20031;-65
2023/09/11 07:43:40;;;;;;;15.25;11.20;;;22.80;99.90;;;;;;5133123;28;20039;-65
2023/09/11 07:46:06;;;;;;;15.88;10.45;;;22.90;99.90;;;;;;5151682;27;20046;-65
2023/09/11 07:48:31;;;;;;;13.75;10.75;;;23.00;99.90;;;;;;5154663;27;20045;-65
2023/09/11 07:50:57;;;;;;;14.13;10.35;;;23.10;99.90;;;;;;5154303;27;20167;-65
2023/09/11 07:53:23;;;;;;;13.98;9.85;;;23.20;99.90;;;;;;5154691;27;20050;-65
2023/09/11 07:55:49;;;;;;;15.02;9.68;;;23.20;99.90;;;;;;5154555;27;20045;-65
2023/09/11 07:58:18;;;;;;;14.43;10.30;;;23.30;99.90;;;;;;5154136;27;20208;-65
2023/09/11 08:00:43;;;;;;;14.02;10.15;;;23.40;99.90;;;;;;5153923;27;20039;-65
2023/09/11 08:03:09;;;;;;;13.98;9.60;;;23.50;99.90;;;;;;5153919;27;20234;-66
2023/09/11 08:05:35;;;;;;;14.93;9.57;;;23.60;99.90;;;;;;5133607;27;20046;-66
2023/09/11 08:08:02;;;;;;;16.75;9.18;;;23.70;99.90;;;;;;5144490;27;20058;-66
2023/09/11 08:10:28;;;;;;;13.77;9.32;;;23.80;99.90;;;;;;5148171;27;20086;-66
2023/09/11 08:12:54;;;;;;;12.80;9.20;;;23.90;99.90;;;;;;5147418;27;20146;-66
2023/09/11 08:15:20;;;;;;;11.32;8.80;;;24.00;99.90;;;;;;5121994;27;20126;-66
2023/09/11 08:17:46;;;;;;;12.43;8.27;;;24.10;99.90;;;;;;5148106;27;20057;-65
2023/09/11 08:20:12;;;;;;;12.88;9.15;;;24.30;99.90;;;;;;5147308;27;20045;-66
2023/09/11 08:22:39;;;;;;;11.57;8.13;;;24.40;99.90;;;;;;5154346;27;20070;-65
2023/09/11 08:25:05;;;;;;;11.82;8.20;;;24.60;99.90;;;;;;5139554;27;20544;-65
2023/09/11 08:27:31;;;;;;;13.07;8.30;;;24.70;99.90;;;;;;5139107;27;20082;-65
2023/09/11 08:29:57;;;;;;;11.43;8.07;;;24.80;99.90;;;;;;5157391;27;20051;-65
2023/09/11 08:32:23;;;;;;;13.05;8.00;;;24.90;99.90;;;;;;5152740;27;20381;-66
2023/09/11 08:34:49;;;;;;;11.70;8.15;;;25.00;99.90;;;;;;5136890;27;20050;-66
2023/09/11 08:37:15;;;;;;;13.05;8.40;;;25.10;99.90;;;;;;5137711;27;20075;-66
2023/09/11 08:39:40;;;;;;;12.45;8.13;;;25.20;99.90;;;;;;5158093;27;20125;-65
2023/09/11 08:42:08;;;;;;;14.75;8.63;;;25.30;99.90;;;;;;5157414;27;20043;-65
2023/09/11 08:44:34;;;;;;;10.68;8.20;;;25.40;99.90;;;;;;5157412;27;20057;-66
2023/09/11 08:47:03;;;;;;;18.55;8.05;;;25.40;99.90;;;;;;5157723;27;20367;-65
2023/09/11 08:49:33;;;;;;;10.45;7.90;;;25.50;99.90;;;;;;5139191;27;20050;-65
2023/09/11 08:52:03;;;;;;;11.68;7.93;;;25.60;99.90;;;;;;5158044;27;20095;-65
2023/09/11 08:54:34;;;;;;;12.98;8.32;;;25.70;99.90;;;;;;5157324;27;20046;-65
2023/09/11 08:57:02;;;;;;;12.90;7.30;;;25.80;99.90;;;;;;5156799;27;20053;-66
2023/09/11 08:59:29;;;;;;;10.88;7.70;;;25.90;99.90;;;;;;5157656;27;20455;-65
2023/09/11 09:01:57;;;;;;;9.15;6.68;;;25.90;99.90;;;;;;5157399;27;20099;-65
2023/09/11 09:04:25;;;;;;;11.00;7.10;;;26.00;99.90;;;;;;5157156;27;20051;-65
2023/09/11 09:06:51;;;;;;;11.05;7.70;;;26.10;99.90;;;;;;5148365;27;20059;-65
2023/09/11 09:09:18;;;;;;;15.57;7.80;;;26.10;99.90;;;;;;5157311;27;20058;-64
2023/09/11 09:11:48;;;;;;;11.20;6.93;;;26.20;99.90;;;;;;5156964;27;20394;-65
2023/09/11 09:14:20;;;;;;;8.23;6.03;;;26.30;99.90;;;;;;5138869;27;20084;-65
2023/09/11 09:16:46;;;;;;;10.50;6.28;;;26.30;99.90;;;;;;5138789;27;20086;-65
2023/09/11 09:19:12;;;;;;;11.48;5.97;;;26.40;99.90;;;;;;5138288;27;20089;-65
2023/09/11 09:22:04;;;;;;;10.90;6.38;;;26.50;99.90;;;;;;5157122;27;20042;-65
2023/09/11 09:24:34;;;;;;;8.13;5.57;;;26.60;99.90;;;;;;5157140;27;20054;-65
2023/09/11 09:27:01;;;;;;;9.45;6.00;;;26.70;99.90;;;;;;5156951;27;20187;-65
2023/09/11 09:29:34;;;;;;;10.27;6.07;;;26.70;99.90;;;;;;5156777;27;20510;-66
2023/09/11 09:32:01;;;;;;;11.27;6.38;;;26.80;99.90;;;;;;5155125;27;20117;-66
2023/09/11 09:34:27;;;;;;;10.13;7.10;;;26.80;99.90;;;;;;5135195;27;20047;-66
2023/09/11 09:36:54;;;;;;;10.23;6.78;;;26.90;99.90;;;;;;5135630;27;20533;-66
2023/09/11 09:39:20;;;;;;;8.48;6.43;;;27.00;99.90;;;;;;5134271;27;20050;-66
2023/09/11 09:41:56;;;;;;;9.05;6.22;;;27.00;99.90;;;;;;5116783;27;20051;-66
2023/09/11 09:44:33;;;;;;;13.60;7.50;;;27.10;99.90;;;;;;5134741;27;20039;-66
2023/09/11 09:47:09;;;;;;;10.75;5.97;;;27.10;99.90;;;;;;5136746;27;20440;-66
2023/09/11 09:49:50;;;;;;;9.38;6.40;;;27.20;99.90;;;;;;5152813;27;20372;-65
2023/09/11 09:52:18;;;;;;;10.73;6.90;;;27.30;99.90;;;;;;5156611;27;20400;-66
2023/09/11 09:54:58;;;;;;;11.93;6.47;;;27.30;99.90;;;;;;5155803;27;20530;-65
2023/09/11 09:57:26;;;;;;;10.60;6.05;;;27.40;99.90;;;;;;5150762;27;20050;-66
2023/09/11 09:59:57;;;;;;;10.32;5.97;;;27.50;99.90;;;;;;5142260;27;20039;-66
2023/09/11 10:02:32;;;;;;;8.18;5.45;;;27.60;99.90;;;;;;5147229;27;20042;-66
2023/09/11 10:05:05;;;;;;;9.15;6.07;;;27.60;99.90;;;;;;5154887;27;20046;-66
2023/09/11 10:07:42;;;;;;;7.25;5.10;;;27.50;99.90;;;;;;5154890;27;20051;-67
2023/09/11 10:10:21;;;;;;;10.55;5.65;;;27.60;99.90;;;;;;5135806;27;20206;-66
2023/09/11 10:12:53;;;;;;;9.98;5.50;;;27.60;99.90;;;;;;5155712;27;20125;-65
2023/09/11 10:15:20;;;;;;;8.90;5.75;;;27.60;99.90;;;;;;5155608;27;20047;-66
2023/09/11 10:17:46;;;;;;;9.15;5.18;;;27.70;99.90;;;;;;5155680;27;20129;-66
2023/09/11 10:20:12;;;;;;;7.53;5.35;;;27.80;99.90;;;;;;5156071;27;20093;-66
2023/09/11 10:22:38;;;;;;;8.32;5.20;;;27.80;99.90;;;;;;5149869;27;20034;-66
2023/09/11 10:25:04;;;;;;;9.15;5.35;;;27.90;99.90;;;;;;5148419;27;20503;-65
2023/09/11 10:27:30;;;;;;;6.80;5.20;;;27.90;99.90;;;;;;5144240;27;20083;-66
2023/09/11 10:30:20;;;;;;;8.90;5.55;;;28.00;99.90;;;;;;5133829;27;20047;-66
2023/09/11 10:32:55;;;;;;;8.88;5.53;;;28.00;99.90;;;;;;5142890;27;20471;-66
2023/09/11 10:35:21;;;;;;;7.68;5.80;;;28.00;99.90;;;;;;5155854;27;20043;-66
2023/09/11 10:37:48;;;;;;;9.43;5.70;;;28.00;99.90;;;;;;5155529;27;20171;-66
2023/09/11 10:40:15;;;;;;;10.45;5.95;;;28.10;99.90;;;;;;5155662;27;20053;-66
2023/09/11 10:42:41;;;;;;;10.80;6.72;;;28.20;99.90;;;;;;5155457;27;20054;-66
2023/09/11 10:45:28;;;;;;;9.50;6.88;;;28.30;99.90;;;;;;5154655;27;20057;-66
2023/09/11 10:47:53;;;;;;;10.15;7.10;;;28.30;99.90;;;;;;5155278;27;20049;-66
2023/09/11 10:50:22;;;;;;;10.43;6.72;;;28.20;99.90;;;;;;5154894;27;20047;-66
2023/09/11 10:52:51;;;;;;;9.07;7.25;;;28.20;99.90;;;;;;5153992;27;20049;-66
2023/09/11 10:55:17;;;;;;;10.68;7.35;;;28.20;99.90;;;;;;5155172;27;20566;-66
2023/09/11 10:57:43;;;;;;;8.55;7.43;;;28.20;99.90;;;;;;5155454;27;20121;-65
2023/09/11 11:00:10;;;;;;;10.65;7.97;;;28.30;99.90;;;;;;5155578;27;20066;-65
2023/09/11 11:02:35;;;;;;;10.45;7.25;;;28.30;99.90;;;;;;5155331;27;20034;-65
2023/09/11 11:05:01;;;;;;;11.20;7.10;;;28.30;99.90;;;;;;5154922;27;20046;-65
2023/09/11 11:07:28;;;;;;;8.57;7.15;;;28.20;99.90;;;;;;5136625;27;20051;-65
2023/09/11 11:09:54;;;;;;;10.77;6.97;;;28.20;99.90;;;;;;5155549;27;20105;-65
2023/09/11 11:12:33;;;;;;;8.40;7.20;;;28.20;99.90;;;;;;5155105;27;20078;-65
2023/09/11 11:15:17;;;;;;;9.82;6.55;;;28.10;99.90;;;;;;5154771;27;20042;-65
2023/09/11 11:17:43;;;;;;;8.57;6.85;;;28.10;99.90;;;;;;5155148;27;20497;-65
2023/09/11 11:20:09;;;;;;;8.38;6.40;;;28.00;99.90;;;;;;5120061;27;20122;-67
2023/09/11 11:22:40;;;;;;;6.78;6.00;;;27.90;99.90;;;;;;5155108;27;20436;-68
2023/09/11 11:25:10;;;;;;;8.95;6.72;;;27.90;99.90;;;;;;5155434;27;20167;-78
2023/09/11 11:27:39;;;;;;;9.85;6.10;;;27.90;99.90;;;;;;5154731;27;20552;-77
2023/09/11 11:30:07;;;;;;;8.15;6.30;;;27.90;99.90;;;;;;5155046;27;20100;-76
2023/09/11 11:32:37;;;;;;;7.97;6.28;;;27.90;99.90;;;;;;5148369;27;20067;-76
2023/09/11 11:35:04;;;;;;;11.15;7.15;;;27.90;99.90;;;;;;5134373;28;20104;-76
2023/09/11 11:37:32;;;;;;;8.50;6.50;;;27.90;99.90;;;;;;5136664;27;20126;-76
2023/09/11 11:40:00;;;;;;;9.60;6.90;;;27.90;99.90;;;;;;5155526;27;20075;-77
2023/09/11 11:42:27;;;;;;;8.43;7.07;;;27.90;99.90;;;;;;5158857;27;20043;-77
2023/09/11 11:44:53;;;;;;;8.32;7.20;;;27.90;99.90;;;;;;5157864;27;20130;-77
2023/09/11 11:47:20;;;;;;;12.73;7.45;;;27.90;99.90;;;;;;5158628;27;20072;-76
2023/09/11 11:49:47;;;;;;;9.35;7.05;;;27.80;99.90;;;;;;5159041;27;20054;-78
2023/09/11 11:52:13;;;;;;;10.48;7.55;;;27.80;99.90;;;;;;5159509;27;20046;-77
2023/09/11 11:54:38;;;;;;;10.13;7.30;;;27.80;99.90;;;;;;5158766;27;20047;-77
2023/09/11 11:57:05;;;;;;;10.63;7.72;;;27.90;99.90;;;;;;5158838;27;20103;-79
2023/09/11 11:59:33;;;;;;;7.70;6.35;;;27.90;99.90;;;;;;5159088;27;20046;-78
2023/09/11 12:01:59;;;;;;;10.48;7.30;;;27.90;99.90;;;;;;5158548;27;20050;-77
2023/09/11 12:04:25;;;;;;;10.27;8.10;;;27.90;99.90;;;;;;5139933;27;20039;-78
2023/09/11 12:06:57;;;;;;;7.70;6.90;;;27.90;99.90;;;;;;5145288;27;20047;-79
2023/09/11 12:09:23;;;;;;;8.45;7.22;;;28.00;99.90;;;;;;5119478;27;20054;-77
2023/09/11 12:11:49;;;;;;;9.52;7.40;;;28.00;99.90;;;;;;5137954;27;20043;-78
2023/09/11 12:14:16;;;;;;;9.13;7.30;;;28.00;99.90;;;;;;5137155;27;20484;-78
2023/09/11 12:16:42;;;;;;;9.52;7.22;;;28.00;99.90;;;;;;5137878;27;20055;-78
2023/09/11 12:19:08;;;;;;;9.60;8.05;;;28.00;99.90;;;;;;5137770;27;20111;-77
2023/09/11 12:21:34;;;;;;;10.23;7.80;;;28.10;99.90;;;;;;5119220;27;20050;-78
2023/09/11 12:24:00;;;;;;;7.30;6.57;;;28.10;99.90;;;;;;5137391;27;20481;-78
2023/09/11 12:26:29;;;;;;;10.00;6.55;;;28.10;99.90;;;;;;5137618;27;20049;-77
2023/09/11 12:28:56;;;;;;;8.65;6.57;;;28.10;99.90;;;;;;5137718;27;20053;-78
2023/09/11 12:31:22;;;;;;;8.23;6.43;;;28.00;99.90;;;;;;5137600;27;20111;-78
2023/09/11 12:33:59;;;;;;;8.88;6.30;;;28.10;99.90;;;;;;5136274;27;20038;-78